sensor_id;sensor_type;location;lat;lon;timestamp;pressure;altitude;pressure_sealevel;temperature;humidity
13235;BME280;6683;48.506;9.050;2024-01-07T00:00:03;97456.63;;;8.61;63.61
13235;BME280;6683;48.506;9.050;2024-01-07T00:03:06;97454.63;;;8.63;63.72
13235;BME280;6683;48.506;9.050;2024-01-07T00:06:08;97454.97;;;8.60;63.85
13235;BME280;6683;48.506;9.050;2024-01-07T00:09:11;97452.72;;;8.57;63.87
13235;BME280;6683;48.506;9.050;2024-01-07T00:12:13;97462.25;;;8.58;64.05
13235;BME280;6683;48.506;9.050;2024-01-07T00:15:17;97462.44;;;8.57;63.84
13235;BME280;6683;48.506;9.050;2024-01-07T00:18:19;97468.69;;;8.56;63.99
13235;BME280;6683;48.506;9.050;2024-01-07T00:21:21;97460.00;;;8.55;63.77
13235;BME280;6683;48.506;9.050;2024-01-07T00:24:24;97459.63;;;8.58;64.19
13235;BME280;6683;48.506;9.050;2024-01-07T00:27:28;97462.06;;;8.60;63.94
13235;BME280;6683;48.506;9.050;2024-01-07T00:30:32;97458.44;;;8.61;64.04
13235;BME280;6683;48.506;9.050;2024-01-07T00:33:34;97462.50;;;8.63;63.75
13235;BME280;6683;48.506;9.050;2024-01-07T00:36:38;97456.63;;;8.61;63.93
13235;BME280;6683;48.506;9.050;2024-01-07T00:39:40;97460.03;;;8.62;63.97
13235;BME280;6683;48.506;9.050;2024-01-07T00:42:42;97458.22;;;8.62;63.79
13235;BME280;6683;48.506;9.050;2024-01-07T00:45:46;97454.00;;;8.61;64.02
13235;BME280;6683;48.506;9.050;2024-01-07T00:48:48;97448.53;;;8.63;63.83
13235;BME280;6683;48.506;9.050;2024-01-07T00:51:50;97459.88;;;8.63;63.87
13235;BME280;6683;48.506;9.050;2024-01-07T00:54:52;97452.97;;;8.62;63.83
13235;BME280;6683;48.506;9.050;2024-01-07T00:57:54;97462.88;;;8.60;63.94
13235;BME280;6683;48.506;9.050;2024-01-07T01:00:58;97461.25;;;8.59;63.88
13235;BME280;6683;48.506;9.050;2024-01-07T01:04:00;97462.06;;;8.60;63.97
13235;BME280;6683;48.506;9.050;2024-01-07T01:07:03;97453.53;;;8.58;63.94
13235;BME280;6683;48.506;9.050;2024-01-07T01:10:07;97463.25;;;8.57;63.76
13235;BME280;6683;48.506;9.050;2024-01-07T01:13:09;97460.81;;;8.56;63.73
13235;BME280;6683;48.506;9.050;2024-01-07T01:16:12;97462.19;;;8.52;63.62
13235;BME280;6683;48.506;9.050;2024-01-07T01:19:15;97470.91;;;8.52;63.55
13235;BME280;6683;48.506;9.050;2024-01-07T01:22:17;97466.03;;;8.49;63.60
13235;BME280;6683;48.506;9.050;2024-01-07T01:25:19;97469.06;;;8.46;63.68
13235;BME280;6683;48.506;9.050;2024-01-07T01:28:21;97468.59;;;8.43;63.88
13235;BME280;6683;48.506;9.050;2024-01-07T01:31:24;97475.84;;;8.41;63.85
13235;BME280;6683;48.506;9.050;2024-01-07T01:34:26;97478.50;;;8.41;63.93
13235;BME280;6683;48.506;9.050;2024-01-07T01:37:28;97474.25;;;8.40;63.84
13235;BME280;6683;48.506;9.050;2024-01-07T01:40:33;97478.69;;;8.39;63.86
13235;BME280;6683;48.506;9.050;2024-01-07T01:43:35;97472.81;;;8.37;63.74
13235;BME280;6683;48.506;9.050;2024-01-07T01:46:38;97470.38;;;8.36;63.69
13235;BME280;6683;48.506;9.050;2024-01-07T01:49:41;97469.75;;;8.34;63.92
13235;BME280;6683;48.506;9.050;2024-01-07T01:52:43;97467.31;;;8.32;63.95
13235;BME280;6683;48.506;9.050;2024-01-07T01:55:46;97471.75;;;8.32;63.75
13235;BME280;6683;48.506;9.050;2024-01-07T01:58:48;97468.31;;;8.31;63.94
13235;BME280;6683;48.506;9.050;2024-01-07T02:01:51;97471.13;;;8.30;63.83
13235;BME280;6683;48.506;9.050;2024-01-07T02:04:53;97469.50;;;8.29;63.96
13235;BME280;6683;48.506;9.050;2024-01-07T02:07:55;97473.75;;;8.30;63.97
13235;BME280;6683;48.506;9.050;2024-01-07T02:10:58;97473.94;;;8.28;63.91
13235;BME280;6683;48.506;9.050;2024-01-07T02:14:00;97467.88;;;8.28;64.03
13235;BME280;6683;48.506;9.050;2024-01-07T02:17:03;97473.31;;;8.26;64.20
13235;BME280;6683;48.506;9.050;2024-01-07T02:20:07;97466.25;;;8.27;64.13
13235;BME280;6683;48.506;9.050;2024-01-07T02:23:09;97470.53;;;8.28;64.25
13235;BME280;6683;48.506;9.050;2024-01-07T02:26:12;97472.13;;;8.29;64.21
13235;BME280;6683;48.506;9.050;2024-01-07T02:29:14;97476.19;;;8.31;64.22
13235;BME280;6683;48.506;9.050;2024-01-07T02:32:16;97478.63;;;8.33;64.22
13235;BME280;6683;48.506;9.050;2024-01-07T02:35:19;97472.38;;;8.34;64.36
13235;BME280;6683;48.506;9.050;2024-01-07T02:38:21;97477.63;;;8.34;64.16
13235;BME280;6683;48.506;9.050;2024-01-07T02:41:24;97474.38;;;8.32;64.43
13235;BME280;6683;48.506;9.050;2024-01-07T02:44:27;97470.94;;;8.31;64.42
13235;BME280;6683;48.506;9.050;2024-01-07T02:47:29;97477.22;;;8.30;64.55
13235;BME280;6683;48.506;9.050;2024-01-07T02:50:32;97469.94;;;8.32;64.56
13235;BME280;6683;48.506;9.050;2024-01-07T02:53:34;97476.81;;;8.33;64.54
13235;BME280;6683;48.506;9.050;2024-01-07T02:56:37;97474.19;;;8.33;64.62
13235;BME280;6683;48.506;9.050;2024-01-07T02:59:39;97476.00;;;8.33;64.58
13235;BME280;6683;48.506;9.050;2024-01-07T03:02:41;97479.25;;;8.35;64.57
13235;BME280;6683;48.506;9.050;2024-01-07T03:05:43;97480.06;;;8.35;64.80
13235;BME280;6683;48.506;9.050;2024-01-07T03:08:47;97482.50;;;8.37;64.75
13235;BME280;6683;48.506;9.050;2024-01-07T03:11:51;97483.94;;;8.39;64.73
13235;BME280;6683;48.506;9.050;2024-01-07T03:14:53;97487.81;;;8.43;64.58
13235;BME280;6683;48.506;9.050;2024-01-07T03:17:56;97492.91;;;8.45;64.71
13235;BME280;6683;48.506;9.050;2024-01-07T03:20:58;97492.72;;;8.46;64.58
13235;BME280;6683;48.506;9.050;2024-01-07T03:24:00;97494.72;;;8.44;64.58
13235;BME280;6683;48.506;9.050;2024-01-07T03:27:04;97494.53;;;8.46;64.63
13235;BME280;6683;48.506;9.050;2024-01-07T03:30:07;97493.69;;;8.45;64.69
13235;BME280;6683;48.506;9.050;2024-01-07T03:33:10;97498.34;;;8.43;64.92
13235;BME280;6683;48.506;9.050;2024-01-07T03:36:13;97501.16;;;8.42;64.87
13235;BME280;6683;48.506;9.050;2024-01-07T03:39:15;97501.16;;;8.42;64.69
13235;BME280;6683;48.506;9.050;2024-01-07T03:42:19;97495.09;;;8.41;64.65
13235;BME280;6683;48.506;9.050;2024-01-07T03:45:21;97493.28;;;8.42;64.50
13235;BME280;6683;48.506;9.050;2024-01-07T03:48:23;97496.91;;;8.41;64.77
13235;BME280;6683;48.506;9.050;2024-01-07T03:51:25;97497.91;;;8.40;64.73
13235;BME280;6683;48.506;9.050;2024-01-07T03:54:27;97501.38;;;8.40;64.79
13235;BME280;6683;48.506;9.050;2024-01-07T03:57:31;97498.91;;;8.39;64.72
13235;BME280;6683;48.506;9.050;2024-01-07T04:00:34;97507.41;;;8.41;64.85
13235;BME280;6683;48.506;9.050;2024-01-07T04:03:38;97502.97;;;8.41;64.73
13235;BME280;6683;48.506;9.050;2024-01-07T04:06:40;97502.78;;;8.43;64.89
13235;BME280;6683;48.506;9.050;2024-01-07T04:09:43;97511.50;;;8.43;64.63
13235;BME280;6683;48.506;9.050;2024-01-07T04:12:47;97511.50;;;8.43;64.63
13235;BME280;6683;48.506;9.050;2024-01-07T04:15:49;97515.94;;;8.43;64.83
13235;BME280;6683;48.506;9.050;2024-01-07T04:18:51;97517.56;;;8.44;64.71
13235;BME280;6683;48.506;9.050;2024-01-07T04:21:53;97513.28;;;8.43;64.57
13235;BME280;6683;48.506;9.050;2024-01-07T04:24:55;97509.69;;;8.44;64.81
13235;BME280;6683;48.506;9.050;2024-01-07T04:27:58;97517.56;;;8.44;64.64
13235;BME280;6683;48.506;9.050;2024-01-07T04:31:00;97520.19;;;8.44;64.76
13235;BME280;6683;48.506;9.050;2024-01-07T04:34:02;97520.41;;;8.42;64.75
13235;BME280;6683;48.506;9.050;2024-01-07T04:37:04;97515.94;;;8.43;64.88
13235;BME280;6683;48.506;9.050;2024-01-07T04:40:08;97520.41;;;8.42;64.71
13235;BME280;6683;48.506;9.050;2024-01-07T04:43:11;97524.63;;;8.43;64.97
13235;BME280;6683;48.506;9.050;2024-01-07T04:46:14;97521.03;;;8.44;64.83
13235;BME280;6683;48.506;9.050;2024-01-07T04:49:16;97528.72;;;8.46;65.04
13235;BME280;6683;48.506;9.050;2024-01-07T04:52:18;97522.63;;;8.45;64.69
13235;BME280;6683;48.506;9.050;2024-01-07T04:55:20;97536.81;;;8.44;64.73
13235;BME280;6683;48.506;9.050;2024-01-07T04:58:24;97532.53;;;8.43;64.63
13235;BME280;6683;48.506;9.050;2024-01-07T05:01:26;97533.72;;;8.41;64.65
13235;BME280;6683;48.506;9.050;2024-01-07T05:04:28;97533.91;;;8.39;64.61
13235;BME280;6683;48.506;9.050;2024-01-07T05:07:30;97538.34;;;8.39;64.93
13235;BME280;6683;48.506;9.050;2024-01-07T05:10:32;97539.16;;;8.39;64.86
13235;BME280;6683;48.506;9.050;2024-01-07T05:13:35;97534.09;;;8.38;64.78
13235;BME280;6683;48.506;9.050;2024-01-07T05:16:37;97536.53;;;8.39;64.71
13235;BME280;6683;48.506;9.050;2024-01-07T05:19:40;97540.00;;;8.40;64.73
13235;BME280;6683;48.506;9.050;2024-01-07T05:22:43;97547.88;;;8.40;64.70
13235;BME280;6683;48.506;9.050;2024-01-07T05:25:46;97544.63;;;8.38;64.71
13235;BME280;6683;48.506;9.050;2024-01-07T05:28:49;97544.63;;;8.38;64.64
13235;BME280;6683;48.506;9.050;2024-01-07T05:31:51;97549.25;;;8.36;64.57
13235;BME280;6683;48.506;9.050;2024-01-07T05:34:53;97547.63;;;8.35;64.80
13235;BME280;6683;48.506;9.050;2024-01-07T05:37:55;97552.09;;;8.34;64.73
13235;BME280;6683;48.506;9.050;2024-01-07T05:40:57;97553.88;;;8.34;64.77
13235;BME280;6683;48.506;9.050;2024-01-07T05:44:01;97560.13;;;8.33;64.90
13235;BME280;6683;48.506;9.050;2024-01-07T05:47:03;97560.13;;;8.33;64.75
13235;BME280;6683;48.506;9.050;2024-01-07T05:50:06;97560.34;;;8.31;64.90
13235;BME280;6683;48.506;9.050;2024-01-07T05:53:08;97569.03;;;8.32;64.78
13235;BME280;6683;48.506;9.050;2024-01-07T05:56:10;97566.59;;;8.30;64.70
13235;BME280;6683;48.506;9.050;2024-01-07T05:59:14;97576.31;;;8.30;64.45
13235;BME280;6683;48.506;9.050;2024-01-07T06:02:16;97571.22;;;8.28;64.49
13235;BME280;6683;48.506;9.050;2024-01-07T06:05:18;97574.03;;;8.27;64.78
13235;BME280;6683;48.506;9.050;2024-01-07T06:08:20;97573.38;;;8.25;64.58
13235;BME280;6683;48.506;9.050;2024-01-07T06:11:22;97579.50;;;8.25;64.64
13235;BME280;6683;48.506;9.050;2024-01-07T06:14:26;97577.81;;;8.24;64.53
13235;BME280;6683;48.506;9.050;2024-01-07T06:17:28;97584.75;;;8.25;64.46
13235;BME280;6683;48.506;9.050;2024-01-07T06:20:30;97580.44;;;8.24;64.53
13235;BME280;6683;48.506;9.050;2024-01-07T06:23:33;97581.47;;;8.23;64.49
13235;BME280;6683;48.506;9.050;2024-01-07T06:26:35;97585.06;;;8.22;64.54
13235;BME280;6683;48.506;9.050;2024-01-07T06:29:39;97583.47;;;8.21;64.31
13235;BME280;6683;48.506;9.050;2024-01-07T06:32:41;97590.53;;;8.21;64.41
13235;BME280;6683;48.506;9.050;2024-01-07T06:35:43;97596.59;;;8.21;64.53
13235;BME280;6683;48.506;9.050;2024-01-07T06:38:45;97600.22;;;8.20;64.62
13235;BME280;6683;48.506;9.050;2024-01-07T06:41:47;97604.69;;;8.20;64.41
13235;BME280;6683;48.506;9.050;2024-01-07T06:44:51;97603.66;;;8.21;64.43
13235;BME280;6683;48.506;9.050;2024-01-07T06:47:53;97612.38;;;8.21;64.55
13235;BME280;6683;48.506;9.050;2024-01-07T06:50:55;97609.75;;;8.21;64.55
13235;BME280;6683;48.506;9.050;2024-01-07T06:53:57;97614.38;;;8.19;64.47
13235;BME280;6683;48.506;9.050;2024-01-07T06:56:59;97617.00;;;8.19;64.60
13235;BME280;6683;48.506;9.050;2024-01-07T07:00:04;97622.25;;;8.19;64.78
13235;BME280;6683;48.506;9.050;2024-01-07T07:03:07;97624.44;;;8.16;64.45
13235;BME280;6683;48.506;9.050;2024-01-07T07:06:09;97631.69;;;8.14;64.56
13235;BME280;6683;48.506;9.050;2024-01-07T07:09:13;97633.69;;;8.12;64.62
13235;BME280;6683;48.506;9.050;2024-01-07T07:12:15;97641.56;;;8.12;64.53
13235;BME280;6683;48.506;9.050;2024-01-07T07:15:20;97641.94;;;8.08;64.27
13235;BME280;6683;48.506;9.050;2024-01-07T07:18:22;97640.50;;;8.06;64.48
13235;BME280;6683;48.506;9.050;2024-01-07T07:21:25;97645.13;;;8.04;64.64
13235;BME280;6683;48.506;9.050;2024-01-07T07:24:28;97653.19;;;8.02;64.57
13235;BME280;6683;48.506;9.050;2024-01-07T07:27:30;97655.34;;;7.99;64.71
13235;BME280;6683;48.506;9.050;2024-01-07T07:30:33;97661.63;;;7.98;64.63
13235;BME280;6683;48.506;9.050;2024-01-07T07:33:35;97666.25;;;7.96;64.58
13235;BME280;6683;48.506;9.050;2024-01-07T07:36:37;97666.25;;;7.96;64.66
13235;BME280;6683;48.506;9.050;2024-01-07T07:39:40;97665.44;;;7.95;64.64
13235;BME280;6683;48.506;9.050;2024-01-07T07:42:42;97670.06;;;7.93;64.58
13235;BME280;6683;48.506;9.050;2024-01-07T07:45:46;97673.84;;;7.91;64.67
13235;BME280;6683;48.506;9.050;2024-01-07T07:48:48;97672.25;;;7.90;64.65
13235;BME280;6683;48.506;9.050;2024-01-07T07:51:50;97675.84;;;7.89;64.61
13235;BME280;6683;48.506;9.050;2024-01-07T07:54:52;97681.94;;;7.89;64.74
13235;BME280;6683;48.506;9.050;2024-01-07T07:57:55;97683.72;;;7.89;64.64
13235;BME280;6683;48.506;9.050;2024-01-07T08:00:58;97683.09;;;7.87;64.59
13235;BME280;6683;48.506;9.050;2024-01-07T08:04:00;97690.97;;;7.87;64.75
13235;BME280;6683;48.506;9.050;2024-01-07T08:07:03;97688.53;;;7.85;64.64
13235;BME280;6683;48.506;9.050;2024-01-07T08:10:07;97696.63;;;7.84;64.58
13235;BME280;6683;48.506;9.050;2024-01-07T08:13:09;97694.16;;;7.82;64.70
13235;BME280;6683;48.506;9.050;2024-01-07T08:16:13;97698.59;;;7.82;64.67
13235;BME280;6683;48.506;9.050;2024-01-07T08:19:15;97703.69;;;7.83;64.71
13235;BME280;6683;48.506;9.050;2024-01-07T08:22:17;97703.50;;;7.85;64.55
13235;BME280;6683;48.506;9.050;2024-01-07T08:25:20;97715.66;;;7.86;64.56
13235;BME280;6683;48.506;9.050;2024-01-07T08:28:23;97710.38;;;7.86;64.57
13235;BME280;6683;48.506;9.050;2024-01-07T08:31:26;97710.53;;;7.84;64.52
13235;BME280;6683;48.506;9.050;2024-01-07T08:34:28;97717.00;;;7.82;64.44
13235;BME280;6683;48.506;9.050;2024-01-07T08:37:30;97724.06;;;7.81;64.56
13235;BME280;6683;48.506;9.050;2024-01-07T08:40:33;97719.97;;;7.79;64.47
13235;BME280;6683;48.506;9.050;2024-01-07T08:43:35;97716.91;;;7.75;64.56
13235;BME280;6683;48.506;9.050;2024-01-07T08:46:39;97719.72;;;7.74;64.56
13235;BME280;6683;48.506;9.050;2024-01-07T08:49:41;97723.31;;;7.73;64.49
13235;BME280;6683;48.506;9.050;2024-01-07T08:52:44;97731.56;;;7.70;64.49
13235;BME280;6683;48.506;9.050;2024-01-07T08:55:47;97736.16;;;7.68;64.45
13235;BME280;6683;48.506;9.050;2024-01-07T08:58:49;97742.44;;;7.67;64.54
13235;BME280;6683;48.506;9.050;2024-01-07T09:01:52;97746.22;;;7.64;64.52
13235;BME280;6683;48.506;9.050;2024-01-07T09:04:54;97749.03;;;7.63;64.47
13235;BME280;6683;48.506;9.050;2024-01-07T09:07:58;97751.84;;;7.61;64.73
13235;BME280;6683;48.506;9.050;2024-01-07T09:11:03;97746.75;;;7.60;64.63
13235;BME280;6683;48.506;9.050;2024-01-07T09:14:06;97755.66;;;7.59;64.50
13235;BME280;6683;48.506;9.050;2024-01-07T09:17:10;97764.50;;;7.58;64.42
13235;BME280;6683;48.506;9.050;2024-01-07T09:20:13;97762.25;;;7.55;64.48
13235;BME280;6683;48.506;9.050;2024-01-07T09:23:15;97762.59;;;7.52;64.30
13235;BME280;6683;48.506;9.050;2024-01-07T09:26:17;97767.22;;;7.50;64.26
13235;BME280;6683;48.506;9.050;2024-01-07T09:29:19;97771.00;;;7.47;64.47
13235;BME280;6683;48.506;9.050;2024-01-07T09:32:23;97778.22;;;7.45;64.29
13235;BME280;6683;48.506;9.050;2024-01-07T09:35:25;97785.13;;;7.46;64.47
13235;BME280;6683;48.506;9.050;2024-01-07T09:38:27;97784.75;;;7.49;64.37
13235;BME280;6683;48.506;9.050;2024-01-07T09:41:29;97778.53;;;7.50;64.66
13235;BME280;6683;48.506;9.050;2024-01-07T09:44:31;97777.38;;;7.53;64.56
13235;BME280;6683;48.506;9.050;2024-01-07T09:47:35;97786.03;;;7.53;64.24
13235;BME280;6683;48.506;9.050;2024-01-07T09:50:37;97779.81;;;7.54;64.37
13235;BME280;6683;48.506;9.050;2024-01-07T09:53:40;97785.69;;;7.56;64.39
13235;BME280;6683;48.506;9.050;2024-01-07T09:56:48;97784.69;;;7.57;64.59
13235;BME280;6683;48.506;9.050;2024-01-07T09:59:52;97786.53;;;7.57;64.26
13235;BME280;6683;48.506;9.050;2024-01-07T10:02:56;97783.91;;;7.57;64.31
13235;BME280;6683;48.506;9.050;2024-01-07T10:05:58;97781.09;;;7.58;64.17
13235;BME280;6683;48.506;9.050;2024-01-07T10:09:00;97787.31;;;7.57;64.14
13235;BME280;6683;48.506;9.050;2024-01-07T10:12:02;97790.13;;;7.56;64.07
13235;BME280;6683;48.506;9.050;2024-01-07T10:15:05;97785.25;;;7.53;64.14
13235;BME280;6683;48.506;9.050;2024-01-07T10:18:09;97784.63;;;7.51;64.06
13235;BME280;6683;48.506;9.050;2024-01-07T10:21:13;97786.59;;;7.49;64.05
13235;BME280;6683;48.506;9.050;2024-01-07T10:24:15;97794.00;;;7.45;64.02
13235;BME280;6683;48.506;9.050;2024-01-07T10:27:18;97795.16;;;7.43;64.07
13235;BME280;6683;48.506;9.050;2024-01-07T10:30:20;97792.72;;;7.41;64.08
13235;BME280;6683;48.506;9.050;2024-01-07T10:33:24;97786.19;;;7.37;64.37
13235;BME280;6683;48.506;9.050;2024-01-07T10:36:26;97785.72;;;7.34;64.00
13235;BME280;6683;48.506;9.050;2024-01-07T10:39:28;97789.50;;;7.31;63.98
13235;BME280;6683;48.506;9.050;2024-01-07T10:42:31;97786.44;;;7.28;64.09
13235;BME280;6683;48.506;9.050;2024-01-07T10:45:33;97790.84;;;7.27;64.00
13235;BME280;6683;48.506;9.050;2024-01-07T10:48:38;97782.53;;;7.23;63.83
13235;BME280;6683;48.506;9.050;2024-01-07T10:51:44;97796.81;;;7.21;63.80
13235;BME280;6683;48.506;9.050;2024-01-07T10:54:47;97818.97;;;7.18;63.59
13235;BME280;6683;48.506;9.050;2024-01-07T10:57:49;97804.56;;;7.14;63.80
13235;BME280;6683;48.506;9.050;2024-01-07T11:00:52;97814.41;;;7.12;63.89
13235;BME280;6683;48.506;9.050;2024-01-07T11:04:01;97816.22;;;7.12;63.86
13235;BME280;6683;48.506;9.050;2024-01-07T11:07:27;97823.63;;;7.08;63.86
13235;BME280;6683;48.506;9.050;2024-01-07T11:10:41;97823.16;;;7.05;63.86
13235;BME280;6683;48.506;9.050;2024-01-07T11:13:45;97819.72;;;7.04;63.78
13235;BME280;6683;48.506;9.050;2024-01-07T11:16:47;97822.34;;;7.04;63.52
13235;BME280;6683;48.506;9.050;2024-01-07T11:19:54;97808.41;;;7.04;63.93
13235;BME280;6683;48.506;9.050;2024-01-07T11:23:26;97807.75;;;7.02;63.76
13235;BME280;6683;48.506;9.050;2024-01-07T11:26:28;97816.44;;;7.02;63.72
13235;BME280;6683;48.506;9.050;2024-01-07T11:29:31;97808.09;;;6.99;63.67
13235;BME280;6683;48.506;9.050;2024-01-07T11:32:34;97816.31;;;6.96;63.57
13235;BME280;6683;48.506;9.050;2024-01-07T11:36:00;97815.50;;;6.95;63.32
13235;BME280;6683;48.506;9.050;2024-01-07T11:39:04;97822.72;;;6.93;63.63
13235;BME280;6683;48.506;9.050;2024-01-07T11:42:09;97815.88;;;6.92;63.61
13235;BME280;6683;48.506;9.050;2024-01-07T11:45:12;97811.59;;;6.91;63.08
13235;BME280;6683;48.506;9.050;2024-01-07T11:48:14;97819.00;;;6.88;62.89
13235;BME280;6683;48.506;9.050;2024-01-07T11:51:18;97822.59;;;6.87;63.35
13235;BME280;6683;48.506;9.050;2024-01-07T11:54:20;97819.97;;;6.87;63.40
13235;BME280;6683;48.506;9.050;2024-01-07T11:57:22;97818.50;;;6.84;63.11
13235;BME280;6683;48.506;9.050;2024-01-07T12:00:24;97820.66;;;6.81;63.07
13235;BME280;6683;48.506;9.050;2024-01-07T12:03:26;97826.28;;;6.78;63.03
13235;BME280;6683;48.506;9.050;2024-01-07T12:06:30;97820.72;;;6.73;63.23
13235;BME280;6683;48.506;9.050;2024-01-07T12:09:32;97828.91;;;6.70;62.87
13235;BME280;6683;48.506;9.050;2024-01-07T12:12:35;97825.81;;;6.66;63.15
13235;BME280;6683;48.506;9.050;2024-01-07T12:15:37;97819.91;;;6.64;62.96
13235;BME280;6683;48.506;9.050;2024-01-07T12:18:40;97828.94;;;6.62;62.72
13235;BME280;6683;48.506;9.050;2024-01-07T12:21:44;97834.53;;;6.59;63.13
13235;BME280;6683;48.506;9.050;2024-01-07T12:25:02;97839.28;;;6.55;62.79
13235;BME280;6683;48.506;9.050;2024-01-07T12:28:07;97839.28;;;6.55;63.09
13235;BME280;6683;48.506;9.050;2024-01-07T12:31:10;97829.34;;;6.51;62.79
13235;BME280;6683;48.506;9.050;2024-01-07T12:34:12;97835.56;;;6.50;62.87
13235;BME280;6683;48.506;9.050;2024-01-07T12:37:16;97838.34;;;6.48;62.88
13235;BME280;6683;48.506;9.050;2024-01-07T12:40:19;97839.19;;;6.49;63.00
13235;BME280;6683;48.506;9.050;2024-01-07T12:43:22;97837.53;;;6.47;62.97
13235;BME280;6683;48.506;9.050;2024-01-07T12:46:24;97844.56;;;6.47;62.73
13235;BME280;6683;48.506;9.050;2024-01-07T12:49:26;97842.78;;;6.47;62.51
13235;BME280;6683;48.506;9.050;2024-01-07T12:52:30;97835.25;;;6.44;62.81
13235;BME280;6683;48.506;9.050;2024-01-07T12:55:32;97837.88;;;6.44;62.44
13235;BME280;6683;48.506;9.050;2024-01-07T12:58:34;97840.66;;;6.43;62.82
13235;BME280;6683;48.506;9.050;2024-01-07T13:01:37;97840.81;;;6.41;62.46
13235;BME280;6683;48.506;9.050;2024-01-07T13:04:39;97844.59;;;6.39;62.47
13235;BME280;6683;48.506;9.050;2024-01-07T13:07:42;97849.53;;;6.34;62.49
13235;BME280;6683;48.506;9.050;2024-01-07T13:10:45;97847.72;;;6.34;62.31
13235;BME280;6683;48.506;9.050;2024-01-07T13:13:47;97852.16;;;6.34;62.64
13235;BME280;6683;48.506;9.050;2024-01-07T13:16:49;97859.38;;;6.32;62.42
13235;BME280;6683;48.506;9.050;2024-01-07T13:19:52;97856.09;;;6.30;62.19
13235;BME280;6683;48.506;9.050;2024-01-07T13:22:55;97864.94;;;6.29;62.41
13235;BME280;6683;48.506;9.050;2024-01-07T13:25:57;97863.16;;;6.29;62.52
13235;BME280;6683;48.506;9.050;2024-01-07T13:29:00;97864.13;;;6.28;62.33
13235;BME280;6683;48.506;9.050;2024-01-07T13:32:04;97871.97;;;6.28;62.48
13235;BME280;6683;48.506;9.050;2024-01-07T13:35:08;97877.22;;;6.28;62.33
13235;BME280;6683;48.506;9.050;2024-01-07T13:38:13;97877.41;;;6.27;62.19
13235;BME280;6683;48.506;9.050;2024-01-07T13:41:15;97892.13;;;6.28;62.08
13235;BME280;6683;48.506;9.050;2024-01-07T13:44:17;97881.81;;;6.26;62.22
13235;BME280;6683;48.506;9.050;2024-01-07T13:47:19;97887.41;;;6.23;62.07
13235;BME280;6683;48.506;9.050;2024-01-07T13:50:22;97881.50;;;6.21;62.47
13235;BME280;6683;48.506;9.050;2024-01-07T13:53:25;97891.34;;;6.19;61.99
13235;BME280;6683;48.506;9.050;2024-01-07T13:56:27;97892.50;;;6.17;61.92
13235;BME280;6683;48.506;9.050;2024-01-07T13:59:29;97900.34;;;6.17;62.42
13235;BME280;6683;48.506;9.050;2024-01-07T14:02:31;97899.03;;;6.13;61.70
13235;BME280;6683;48.506;9.050;2024-01-07T14:05:33;97906.41;;;6.09;62.11
13235;BME280;6683;48.506;9.050;2024-01-07T14:08:37;97909.38;;;6.06;61.88
13235;BME280;6683;48.506;9.050;2024-01-07T14:11:39;97910.69;;;6.02;62.08
13235;BME280;6683;48.506;9.050;2024-01-07T14:14:41;97916.22;;;5.99;61.76
13235;BME280;6683;48.506;9.050;2024-01-07T14:17:43;97929.03;;;5.94;61.49
13235;BME280;6683;48.506;9.050;2024-01-07T14:20:45;97937.53;;;5.88;61.77
13235;BME280;6683;48.506;9.050;2024-01-07T14:23:48;97933.06;;;5.81;62.04
13235;BME280;6683;48.506;9.050;2024-01-07T14:26:51;97936.16;;;5.76;62.07
13235;BME280;6683;48.506;9.050;2024-01-07T14:29:53;97939.44;;;5.70;61.87
13235;BME280;6683;48.506;9.050;2024-01-07T14:32:56;97934.69;;;5.65;61.99
13235;BME280;6683;48.506;9.050;2024-01-07T14:35:59;97947.28;;;5.62;62.18
13235;BME280;6683;48.506;9.050;2024-01-07T14:39:02;97948.09;;;5.54;61.86
13235;BME280;6683;48.506;9.050;2024-01-07T14:42:05;97953.97;;;5.48;61.44
13235;BME280;6683;48.506;9.050;2024-01-07T14:45:08;97960.66;;;5.43;62.00
13235;BME280;6683;48.506;9.050;2024-01-07T14:48:10;97959.66;;;5.36;61.51
13235;BME280;6683;48.506;9.050;2024-01-07T14:51:12;97961.09;;;5.30;61.81
13235;BME280;6683;48.506;9.050;2024-01-07T14:54:15;97972.22;;;5.24;61.54
13235;BME280;6683;48.506;9.050;2024-01-07T14:57:18;97977.13;;;5.19;61.62
13235;BME280;6683;48.506;9.050;2024-01-07T15:00:20;97974.97;;;5.15;62.20
13235;BME280;6683;48.506;9.050;2024-01-07T15:03:22;97979.69;;;5.11;61.99
13235;BME280;6683;48.506;9.050;2024-01-07T15:06:24;97985.53;;;5.05;61.97
13235;BME280;6683;48.506;9.050;2024-01-07T15:09:28;97984.38;;;5.00;62.49
13235;BME280;6683;48.506;9.050;2024-01-07T15:12:31;97986.63;;;4.95;62.29
13235;BME280;6683;48.506;9.050;2024-01-07T15:15:37;97993.31;;;4.89;62.17
13235;BME280;6683;48.506;9.050;2024-01-07T15:18:39;97996.09;;;4.88;61.67
13235;BME280;6683;48.506;9.050;2024-01-07T15:21:41;98003.94;;;4.88;62.21
13235;BME280;6683;48.506;9.050;2024-01-07T15:24:44;98005.06;;;4.85;62.33
13235;BME280;6683;48.506;9.050;2024-01-07T15:27:47;98009.63;;;4.83;62.04
13235;BME280;6683;48.506;9.050;2024-01-07T15:30:49;98010.59;;;4.82;62.20
13235;BME280;6683;48.506;9.050;2024-01-07T15:33:51;98011.75;;;4.79;61.86
13235;BME280;6683;48.506;9.050;2024-01-07T15:36:53;98014.66;;;4.76;62.68
13235;BME280;6683;48.506;9.050;2024-01-07T15:39:56;98019.06;;;4.76;62.50
13235;BME280;6683;48.506;9.050;2024-01-07T15:42:59;98022.50;;;4.76;62.24
13235;BME280;6683;48.506;9.050;2024-01-07T15:46:01;98021.00;;;4.74;62.49
13235;BME280;6683;48.506;9.050;2024-01-07T15:49:04;98032.44;;;4.73;62.21
13235;BME280;6683;48.506;9.050;2024-01-07T15:52:06;98030.97;;;4.70;62.59
13235;BME280;6683;48.506;9.050;2024-01-07T15:55:10;98029.97;;;4.71;62.12
13235;BME280;6683;48.506;9.050;2024-01-07T15:58:15;98041.56;;;4.69;62.56
13235;BME280;6683;48.506;9.050;2024-01-07T16:01:17;98049.41;;;4.69;62.63
13235;BME280;6683;48.506;9.050;2024-01-07T16:04:19;98053.97;;;4.67;62.53
13235;BME280;6683;48.506;9.050;2024-01-07T16:07:21;98060.50;;;4.63;61.97
13235;BME280;6683;48.506;9.050;2024-01-07T16:10:25;98059.16;;;4.59;62.56
13235;BME280;6683;48.506;9.050;2024-01-07T16:13:28;98066.63;;;4.54;62.44
13235;BME280;6683;48.506;9.050;2024-01-07T16:16:30;98073.94;;;4.50;62.58
13235;BME280;6683;48.506;9.050;2024-01-07T16:19:32;98075.34;;;4.45;62.59
13235;BME280;6683;48.506;9.050;2024-01-07T16:22:34;98082.53;;;4.43;62.58
13235;BME280;6683;48.506;9.050;2024-01-07T16:25:38;98079.56;;;4.38;61.99
13235;BME280;6683;48.506;9.050;2024-01-07T16:28:40;98090.97;;;4.37;62.70
13235;BME280;6683;48.506;9.050;2024-01-07T16:31:42;98091.28;;;4.34;62.53
13235;BME280;6683;48.506;9.050;2024-01-07T16:34:44;98102.84;;;4.31;62.62